LROP/OTP METAR and TAF weather

Enter ICAO airport designator
Station Type Date Time Source
LROP METAR 2022/01/23 12:30 UTC NOAA

LROP 231230Z 29004KT 260V340 7000 -SN FEW009 FEW022CB BKN030 M02/M05 Q1021


Station Type Date Time Source
LROP Decoded METAR 2022/01/23 12:30 UTC NOAA

Bucuresti Otopeni, Romania (LROP) 44-33N 026-06E 95M
Jan 23, 2022 - 07:30 AM EST / 2022.01.23 1230 UTC
Wind: from the WNW (290 degrees) at 5 MPH (4 KT) (direction variable):0
Visibility: 4 mile(s):0
Sky conditions: mostly cloudy
Weather: light snow; Cumulonimbus clouds observed
Temperature: 28 F (-2 C)
Windchill: 23 F (-5 C):1
Dew Point: 23 F (-5 C)
Relative Humidity: 79%
Pressure (altimeter): 30.15 in. Hg (1021 hPa)
ob: LROP 231230Z 29004KT 260V340 7000 -SN FEW009 FEW022CB BKN030 M02/M05 Q1021
cycle: 12

Station Type Date Time Source
LROP TAF 2022/01/23 12:33 UTC NOAA

TAF LROP 231100Z 2312/2412 25006KT 9999 BKN040 PROB30
TEMPO 2313/2317 08012KT 5000 -SHSN SCT015 SCT030CB BKN040
BECMG 2319/2322 04010KT
BECMG 2404/2406 VRB04KT
BECMG 2408/2410 34010KT

Example: see airport list